createdAt,value
2023-03-15T00:03:55.589Z,2.19
2023-03-15T00:08:57.028Z,2.24
2023-03-15T00:13:59.442Z,2.24
2023-03-15T00:19:00.944Z,2.20
2023-03-15T00:24:03.145Z,2.17
2023-03-15T00:29:05.193Z,2.19
2023-03-15T00:34:06.636Z,2.31
2023-03-15T00:39:08.071Z,2.27
2023-03-15T00:44:09.473Z,2.21
2023-03-15T00:49:11.827Z,2.24
2023-03-15T00:54:13.786Z,2.27
2023-03-15T00:59:15.379Z,2.26
2023-03-15T01:04:16.823Z,2.21
2023-03-15T01:09:18.287Z,2.14
2023-03-15T01:14:20.071Z,2.15
2023-03-15T01:19:21.685Z,2.20
2023-03-15T01:24:23.158Z,2.30
2023-03-15T01:29:25.096Z,2.35
2023-03-15T01:34:26.744Z,2.36
2023-03-15T01:39:29.042Z,2.38
2023-03-15T01:44:51.035Z,2.41
2023-03-15T01:50:05.093Z,2.38
2023-03-15T01:55:14.862Z,2.29
2023-03-15T02:00:28.802Z,2.22
2023-03-15T02:05:46.077Z,2.19
2023-03-15T02:10:54.759Z,2.24
2023-03-15T02:15:59.674Z,2.21
2023-03-15T02:21:20.313Z,2.25
2023-03-15T02:26:55.643Z,2.30
2023-03-15T02:31:58.087Z,2.27
2023-03-15T02:37:00.322Z,2.28
2023-03-15T02:42:02.301Z,2.29
2023-03-15T02:47:20.306Z,2.35
2023-03-15T02:52:22.922Z,2.40
2023-03-15T02:57:24.460Z,2.39
2023-03-15T03:02:28.776Z,2.33
2023-03-15T03:07:30.871Z,2.23
2023-03-15T03:12:37.655Z,2.15
2023-03-15T03:17:39.205Z,2.04
2023-03-15T03:22:41.977Z,1.97
2023-03-15T03:27:43.928Z,1.95
2023-03-15T03:32:47.003Z,1.92
2023-03-15T03:37:48.547Z,1.91
2023-03-15T03:42:55.066Z,1.89
2023-03-15T03:47:57.764Z,1.88
2023-03-15T03:52:59.666Z,1.85
2023-03-15T03:58:06.185Z,1.81
2023-03-15T04:03:27.926Z,1.83
2023-03-15T04:08:37.792Z,1.83
2023-03-15T04:13:40.142Z,1.82
2023-03-15T04:18:41.710Z,1.79
2023-03-15T04:23:43.375Z,1.78
2023-03-15T04:28:57.483Z,1.76
2023-03-15T04:34:15.502Z,1.72
2023-03-15T04:39:46.007Z,1.69
2023-03-15T04:45:06.335Z,1.66
2023-03-15T04:50:26.299Z,1.62
2023-03-15T04:55:50.879Z,1.58
2023-03-15T05:00:59.792Z,1.54
2023-03-15T05:06:18.349Z,1.52
2023-03-15T05:11:31.879Z,1.49
2023-03-15T05:17:08.842Z,1.48
2023-03-15T05:22:28.078Z,1.49
2023-03-15T05:27:58.843Z,1.49
2023-03-15T05:33:36.011Z,1.50
2023-03-15T05:38:55.205Z,1.51
2023-03-15T05:44:19.528Z,1.51
2023-03-15T05:49:39.419Z,1.54
2023-03-15T05:55:09.185Z,1.62
2023-03-15T06:00:21.732Z,1.64
2023-03-15T06:05:28.367Z,1.64
2023-03-15T06:10:31.103Z,1.67
2023-03-15T06:15:37.281Z,1.71
2023-03-15T06:20:41.010Z,1.76
2023-03-15T06:25:47.003Z,1.81
2023-03-15T06:30:49.442Z,1.88
2023-03-15T06:35:51.995Z,1.98
2023-03-15T06:40:53.578Z,2.05
2023-03-15T06:45:56.594Z,2.15
2023-03-15T06:50:58.927Z,2.22
2023-03-15T06:56:00.566Z,2.31
2023-03-15T07:01:01.996Z,2.38
2023-03-15T07:06:03.779Z,2.44
2023-03-15T07:11:06.276Z,2.53
2023-03-15T07:16:07.755Z,2.65
2023-03-15T07:21:09.238Z,2.84
2023-03-15T07:26:10.703Z,2.99
2023-03-15T07:31:12.654Z,3.07
2023-03-15T07:36:14.163Z,3.07
2023-03-15T07:41:15.587Z,3.04
2023-03-15T07:46:28.770Z,3.13
2023-03-15T07:51:30.354Z,3.30
2023-03-15T07:56:31.780Z,3.53
2023-03-15T08:01:33.422Z,3.73
2023-03-15T08:06:34.903Z,3.89
2023-03-15T08:11:37.276Z,4.03
2023-03-15T08:16:38.993Z,4.24
2023-03-15T08:21:45.327Z,4.31
2023-03-15T08:26:47.443Z,4.33
2023-03-15T08:31:49.121Z,4.52
2023-03-15T08:36:51.061Z,4.50
2023-03-15T08:41:52.628Z,4.59
2023-03-15T08:46:54.050Z,4.63
2023-03-15T08:51:55.536Z,4.50
2023-03-15T08:56:57.051Z,3.74
2023-03-15T09:02:00.137Z,3.08
2023-03-15T09:07:01.639Z,2.92
2023-03-15T09:12:03.320Z,3.10
2023-03-15T09:17:04.896Z,3.36
2023-03-15T09:22:16.319Z,3.87
2023-03-15T09:27:24.994Z,4.20
2023-03-15T09:32:26.700Z,4.47
2023-03-15T09:37:28.705Z,4.65
2023-03-15T09:43:13.879Z,4.85
2023-03-15T09:48:21.335Z,5.03
2023-03-15T09:53:28.831Z,4.97
2023-03-15T09:58:32.817Z,4.95
2023-03-15T10:03:43.938Z,4.87
2023-03-15T10:08:51.343Z,4.84
2023-03-15T10:14:17.878Z,4.86
2023-03-15T10:19:45.846Z,4.88
2023-03-15T10:24:56.805Z,4.97
2023-03-15T10:29:59.194Z,4.88
2023-03-15T10:35:01.641Z,4.70
2023-03-15T10:40:07.705Z,4.66
2023-03-15T10:45:20.852Z,4.76
2023-03-15T10:50:26.631Z,4.72
2023-03-15T10:55:36.912Z,4.68
2023-03-15T11:00:38.392Z,4.58
2023-03-15T11:05:46.918Z,4.58
2023-03-15T11:10:57.034Z,4.59
2023-03-15T11:16:04.880Z,4.50
2023-03-15T11:21:11.852Z,4.29
2023-03-15T11:26:32.592Z,4.15
2023-03-15T11:31:35.822Z,3.99
2023-03-15T11:36:41.245Z,3.85
2023-03-15T11:41:52.579Z,3.91
2023-03-15T11:47:08.047Z,3.99
2023-03-15T11:52:10.689Z,4.06
2023-03-15T11:57:40.344Z,4.28
2023-03-15T12:02:54.324Z,4.51
2023-03-15T12:08:17.130Z,4.71
2023-03-15T12:13:27.775Z,4.92
2023-03-15T12:18:45.749Z,5.02
2023-03-15T12:23:57.645Z,4.88
2023-03-15T12:28:59.035Z,4.68
2023-03-15T12:34:04.244Z,4.58
2023-03-15T12:39:14.730Z,4.71
2023-03-15T12:44:25.760Z,4.95
2023-03-15T12:49:27.120Z,5.13
2023-03-15T12:54:41.242Z,5.12
2023-03-15T12:59:54.879Z,5.12
2023-03-15T13:05:16.546Z,5.14
2023-03-15T13:10:24.366Z,5.10
2023-03-15T13:15:33.877Z,5.06
2023-03-15T13:20:41.355Z,5.43
2023-03-15T13:25:59.421Z,6.90
2023-03-15T13:31:01.002Z,8.63
2023-03-15T13:36:06.591Z,9.19
2023-03-15T13:41:23.365Z,8.31
2023-03-15T13:46:29.283Z,7.97
2023-03-15T13:51:37.193Z,8.02
2023-03-15T13:57:16.229Z,7.10
2023-03-15T14:02:20.843Z,6.40
2023-03-15T14:07:36.445Z,5.83
2023-03-15T14:12:37.953Z,5.55
2023-03-15T14:17:53.650Z,5.58
2023-03-15T14:23:00.761Z,5.80
2023-03-15T14:28:04.531Z,5.85
2023-03-15T14:33:09.645Z,5.75
2023-03-15T14:38:19.684Z,5.63
2023-03-15T14:43:21.188Z,5.48
2023-03-15T14:48:28.576Z,5.54
2023-03-15T14:53:35.675Z,5.70
2023-03-15T14:58:37.254Z,5.65
2023-03-15T15:03:46.606Z,5.52
2023-03-15T15:08:49.388Z,5.52
2023-03-15T15:13:50.851Z,5.47
2023-03-15T15:18:52.423Z,5.43
2023-03-15T15:23:58.951Z,5.56
2023-03-15T15:29:01.079Z,5.68
2023-03-15T15:34:02.660Z,5.75
2023-03-15T15:39:11.051Z,5.81
2023-03-15T15:44:16.785Z,5.85
2023-03-15T15:49:19.347Z,5.85
2023-03-15T15:54:26.007Z,6.27
2023-03-15T15:59:28.048Z,6.18
2023-03-15T16:04:30.079Z,5.71
2023-03-15T16:09:35.901Z,5.41
2023-03-15T16:14:37.311Z,5.20
2023-03-15T16:19:38.758Z,5.04
2023-03-15T16:24:44.040Z,4.91
2023-03-15T16:29:47.534Z,4.70
2023-03-15T16:34:52.198Z,4.50
2023-03-15T16:39:57.499Z,4.32
2023-03-15T16:44:58.986Z,4.16
2023-03-15T16:50:00.492Z,4.02
2023-03-15T16:55:02.752Z,3.88
2023-03-15T17:00:11.510Z,3.77
2023-03-15T17:05:17.490Z,3.63
2023-03-15T17:10:27.268Z,3.50
2023-03-15T17:15:29.617Z,3.36
2023-03-15T17:20:31.377Z,3.27
2023-03-15T17:25:34.127Z,3.18
2023-03-15T17:30:37.212Z,3.09
2023-03-15T17:35:41.521Z,2.98
2023-03-15T17:40:43.237Z,2.94
2023-03-15T17:45:44.749Z,2.85
2023-03-15T17:50:46.277Z,2.80
2023-03-15T17:55:47.935Z,2.78
2023-03-15T18:00:50.895Z,2.74
2023-03-15T18:05:52.607Z,2.75
2023-03-15T18:10:54.439Z,2.78
2023-03-15T18:15:55.872Z,2.80
2023-03-15T18:20:57.322Z,2.78
2023-03-15T18:25:58.812Z,2.69
2023-03-15T18:31:00.534Z,2.61
2023-03-15T18:36:02.008Z,2.55
2023-03-15T18:41:04.338Z,2.45
2023-03-15T18:46:05.916Z,2.38
2023-03-15T18:51:12.019Z,2.29
2023-03-15T18:56:19.349Z,2.18
2023-03-15T19:01:22.705Z,2.12
2023-03-15T19:06:24.307Z,2.02
2023-03-15T19:11:26.864Z,1.93
2023-03-15T19:16:30.701Z,1.83
2023-03-15T19:21:32.225Z,1.66
2023-03-15T19:26:33.727Z,1.55
2023-03-15T19:31:35.150Z,1.48
2023-03-15T19:36:36.589Z,1.47
2023-03-15T19:41:38.486Z,1.44
2023-03-15T19:46:40.258Z,1.44
2023-03-15T19:51:41.743Z,1.44
2023-03-15T19:56:45.439Z,1.38
2023-03-15T20:01:46.872Z,1.37
2023-03-15T20:06:48.339Z,1.34
2023-03-15T20:11:49.810Z,1.33
2023-03-15T20:16:51.282Z,1.34
2023-03-15T20:21:52.957Z,1.38
2023-03-15T20:26:54.491Z,1.43
2023-03-15T20:31:55.967Z,1.51
2023-03-15T20:36:58.222Z,1.58
2023-03-15T20:41:59.678Z,1.58
2023-03-15T20:47:01.178Z,1.61
2023-03-15T20:52:03.366Z,1.64
2023-03-15T20:57:05.081Z,1.64
2023-03-15T21:02:06.940Z,1.60
2023-03-15T21:07:08.400Z,1.55
2023-03-15T21:12:09.927Z,1.51
2023-03-15T21:17:12.202Z,1.47
2023-03-15T21:22:13.647Z,1.48
2023-03-15T21:27:16.498Z,1.50
2023-03-15T21:32:18.041Z,1.49
2023-03-15T21:37:19.522Z,1.49
2023-03-15T21:42:21.031Z,1.54
2023-03-15T21:47:22.505Z,1.56
2023-03-15T21:52:26.073Z,1.56
2023-03-15T21:57:27.629Z,1.52
2023-03-15T22:02:29.044Z,1.43
2023-03-15T22:07:30.954Z,1.41
2023-03-15T22:12:32.448Z,1.44
2023-03-15T22:17:34.902Z,1.41
2023-03-15T22:22:36.562Z,1.37
2023-03-15T22:27:38.067Z,1.34
2023-03-15T22:32:44.037Z,1.30
2023-03-15T22:37:45.763Z,1.18
2023-03-15T22:42:49.471Z,1.04
2023-03-15T22:47:51.149Z,1.01
2023-03-15T22:52:52.644Z,1.05
2023-03-15T22:57:54.108Z,1.12
2023-03-15T23:02:55.542Z,1.16
2023-03-15T23:07:56.959Z,1.22
2023-03-15T23:12:58.927Z,1.27
2023-03-15T23:18:01.691Z,1.32
2023-03-15T23:23:03.170Z,1.35
2023-03-15T23:28:05.446Z,1.33
2023-03-15T23:33:08.588Z,1.30
2023-03-15T23:38:10.170Z,1.28
2023-03-15T23:43:12.226Z,1.23
2023-03-15T23:48:13.667Z,1.19
2023-03-15T23:53:15.085Z,1.09
2023-03-15T23:58:16.500Z,1.08
